createdAt,value
2023-02-12T00:00:04.231Z,28.82
2023-02-12T00:00:33.929Z,28.82
2023-02-12T00:01:04.031Z,28.80
2023-02-12T00:01:34.111Z,28.76
2023-02-12T00:02:04.265Z,28.81
2023-02-12T00:02:34.301Z,28.79
2023-02-12T00:03:04.304Z,28.79
2023-02-12T00:03:34.415Z,28.78
2023-02-12T00:04:04.483Z,28.79
2023-02-12T00:04:34.546Z,28.79
2023-02-12T00:05:04.622Z,28.82
2023-02-12T00:05:34.705Z,28.79
2023-02-12T00:06:04.782Z,28.79
2023-02-12T00:06:34.883Z,28.79
2023-02-12T00:07:04.980Z,28.79
2023-02-12T00:07:35.062Z,28.79
2023-02-12T00:08:05.140Z,28.78
2023-02-12T00:08:35.275Z,28.82
2023-02-12T00:09:05.382Z,28.78
2023-02-12T00:09:35.380Z,28.76
2023-02-12T00:10:05.499Z,28.79
2023-02-12T00:10:35.487Z,28.78
2023-02-12T00:11:05.611Z,28.78
2023-02-12T00:11:35.613Z,28.78
2023-02-12T00:12:05.609Z,28.79
2023-02-12T00:12:35.599Z,28.84
2023-02-12T00:13:05.718Z,28.82
2023-02-12T00:13:35.709Z,28.81
2023-02-12T00:14:05.718Z,28.73
2023-02-12T00:14:35.821Z,28.76
2023-02-12T00:15:05.937Z,28.74
2023-02-12T00:15:36.081Z,28.78
2023-02-12T00:16:06.006Z,28.79
2023-02-12T00:16:36.007Z,28.78
2023-02-12T00:17:06.129Z,28.80
2023-02-12T00:17:36.134Z,28.81
2023-02-12T00:18:06.281Z,28.74
2023-02-12T00:18:36.260Z,28.79
2023-02-12T00:19:06.260Z,28.79
2023-02-12T00:19:36.364Z,28.79
2023-02-12T00:20:06.478Z,28.78
2023-02-12T00:20:36.472Z,28.81
2023-02-12T00:21:06.468Z,28.79
2023-02-12T00:21:36.587Z,28.79
2023-02-12T00:22:06.754Z,28.79
2023-02-12T00:22:36.723Z,28.85
2023-02-12T00:23:06.743Z,28.82
2023-02-12T00:23:36.844Z,28.79
2023-02-12T00:24:06.842Z,28.80
2023-02-12T00:24:36.827Z,28.82
2023-02-12T00:25:06.941Z,28.81
2023-02-12T00:25:36.955Z,28.81
2023-02-12T00:26:06.939Z,28.75
2023-02-12T00:26:37.048Z,28.78
2023-02-12T00:27:07.070Z,28.76
2023-02-12T00:27:37.045Z,28.78
2023-02-12T00:28:07.170Z,28.82
2023-02-12T00:28:37.336Z,28.81
2023-02-12T00:29:07.214Z,28.78
2023-02-12T00:29:37.213Z,28.82
2023-02-12T00:30:07.334Z,28.82
2023-02-12T00:30:37.489Z,28.81
2023-02-12T00:31:07.570Z,28.88
2023-02-12T00:31:37.548Z,28.76
2023-02-12T00:32:07.544Z,28.79
2023-02-12T00:32:37.536Z,28.78
2023-02-12T00:33:07.527Z,28.81
2023-02-12T00:33:37.556Z,28.73
2023-02-12T00:34:07.644Z,28.80
2023-02-12T00:34:37.637Z,28.80
2023-02-12T00:35:07.761Z,28.78
2023-02-12T00:35:37.879Z,28.79
2023-02-12T00:36:07.877Z,28.82
2023-02-12T00:36:37.991Z,28.81
2023-02-12T00:37:08.114Z,28.82
2023-02-12T00:37:38.113Z,28.75
2023-02-12T00:38:08.118Z,28.79
2023-02-12T00:38:38.114Z,28.81
2023-02-12T00:39:08.120Z,28.81
2023-02-12T00:39:38.107Z,28.82
2023-02-12T00:40:08.222Z,28.82
2023-02-12T00:40:38.241Z,28.81
2023-02-12T00:41:08.246Z,28.81
2023-02-12T00:41:38.356Z,28.81
2023-02-12T00:42:08.478Z,28.82
2023-02-12T00:42:38.488Z,28.80
2023-02-12T00:43:08.478Z,28.87
2023-02-12T00:43:38.469Z,28.85
2023-02-12T00:44:08.609Z,28.84
2023-02-12T00:44:38.588Z,28.81
2023-02-12T00:45:08.704Z,28.78
2023-02-12T00:45:38.702Z,28.81
2023-02-12T00:46:08.907Z,28.85
2023-02-12T00:46:39.007Z,28.82
2023-02-12T00:47:08.989Z,28.79
2023-02-12T00:47:39.251Z,28.82
2023-02-12T00:48:08.994Z,28.81
2023-02-12T00:48:38.990Z,28.81
2023-02-12T00:49:09.100Z,28.85
2023-02-12T00:49:39.065Z,28.79
2023-02-12T00:50:09.184Z,28.84
2023-02-12T00:50:39.191Z,28.85
2023-02-12T00:51:09.184Z,28.79
2023-02-12T00:51:39.306Z,28.81
2023-02-12T00:52:09.318Z,28.84
2023-02-12T00:52:39.481Z,28.80
2023-02-12T00:53:09.345Z,28.78
2023-02-12T00:53:39.361Z,28.84
2023-02-12T00:54:09.364Z,28.82
2023-02-12T00:54:39.358Z,28.83
2023-02-12T00:55:09.478Z,28.81
2023-02-12T00:55:39.469Z,28.87
2023-02-12T00:56:09.588Z,28.84
2023-02-12T00:56:39.709Z,28.84
2023-02-12T00:57:09.700Z,28.82
2023-02-12T00:57:39.783Z,28.86
2023-02-12T00:58:09.769Z,28.81
2023-02-12T00:58:39.842Z,28.80
2023-02-12T00:59:09.923Z,28.85
2023-02-12T00:59:39.995Z,28.85
2023-02-12T01:00:10.077Z,28.84
2023-02-12T01:00:40.162Z,28.85
2023-02-12T01:01:10.314Z,28.82
2023-02-12T01:01:40.323Z,28.90
2023-02-12T01:02:10.334Z,28.85
2023-02-12T01:02:40.416Z,28.90
2023-02-12T01:03:10.510Z,28.88
2023-02-12T01:03:40.578Z,28.80
2023-02-12T01:04:10.654Z,28.82
2023-02-12T01:04:40.787Z,28.85
2023-02-12T01:05:10.814Z,28.88
2023-02-12T01:05:40.849Z,28.88
2023-02-12T01:06:10.937Z,28.88
2023-02-12T01:06:41.009Z,28.88
2023-02-12T01:07:11.091Z,28.88
2023-02-12T01:07:41.173Z,28.86
2023-02-12T01:08:11.278Z,28.91
2023-02-12T01:08:41.384Z,28.86
2023-02-12T01:09:11.383Z,28.87
2023-02-12T01:09:41.373Z,28.86
2023-02-12T01:10:11.498Z,28.85
2023-02-12T01:10:41.497Z,28.94
2023-02-12T01:11:11.481Z,28.91
2023-02-12T01:11:41.594Z,28.85
2023-02-12T01:12:11.718Z,28.85
2023-02-12T01:12:41.715Z,28.86
2023-02-12T01:13:11.710Z,28.88
2023-02-12T01:13:41.706Z,28.83
2023-02-12T01:14:11.705Z,28.85
2023-02-12T01:14:41.819Z,28.88
2023-02-12T01:15:11.818Z,28.85
2023-02-12T01:15:41.991Z,28.89
2023-02-12T01:16:12.070Z,28.88
2023-02-12T01:16:42.081Z,28.85
2023-02-12T01:17:12.198Z,28.83
2023-02-12T01:17:42.197Z,28.88
2023-02-12T01:18:12.194Z,28.88
2023-02-12T01:18:42.197Z,28.91
2023-02-12T01:19:12.506Z,28.92
2023-02-12T01:19:42.398Z,28.83
2023-02-12T01:20:12.370Z,28.93
2023-02-12T01:20:42.484Z,28.91
2023-02-12T01:21:12.613Z,28.89
2023-02-12T01:21:42.727Z,28.92
2023-02-12T01:22:12.718Z,28.86
2023-02-12T01:22:42.720Z,28.92
2023-02-12T01:23:12.711Z,28.91
2023-02-12T01:23:42.832Z,28.91
2023-02-12T01:24:12.948Z,28.89
2023-02-12T01:24:43.068Z,28.88
2023-02-12T01:25:13.064Z,28.86
2023-02-12T01:25:43.064Z,28.91
2023-02-12T01:26:13.181Z,28.92
2023-02-12T01:26:43.297Z,28.91
2023-02-12T01:27:13.414Z,28.89
2023-02-12T01:27:43.413Z,28.91
2023-02-12T01:28:13.429Z,28.88
2023-02-12T01:28:43.419Z,28.89
2023-02-12T01:29:13.541Z,28.85
2023-02-12T01:29:43.540Z,28.85
2023-02-12T01:30:13.661Z,28.89
2023-02-12T01:30:43.737Z,28.91
2023-02-12T01:31:13.940Z,28.89
2023-02-12T01:31:43.965Z,28.83
2023-02-12T01:32:13.817Z,28.85
2023-02-12T01:32:43.818Z,28.91
2023-02-12T01:33:13.796Z,28.85
2023-02-12T01:33:43.912Z,28.85
2023-02-12T01:34:13.915Z,28.88
2023-02-12T01:34:44.029Z,28.89
2023-02-12T01:35:14.197Z,28.88
2023-02-12T01:35:44.185Z,28.89
2023-02-12T01:36:14.189Z,28.89
2023-02-12T01:36:44.170Z,28.85
2023-02-12T01:37:14.159Z,28.92
2023-02-12T01:37:44.281Z,28.91
2023-02-12T01:38:14.395Z,28.88
2023-02-12T01:38:44.388Z,28.91
2023-02-12T01:39:14.406Z,28.89
2023-02-12T01:39:44.375Z,28.91
2023-02-12T01:40:14.498Z,28.91
2023-02-12T01:40:44.495Z,28.91
2023-02-12T01:41:14.620Z,28.88
2023-02-12T01:41:44.726Z,28.91
2023-02-12T01:42:14.843Z,28.95
2023-02-12T01:42:44.872Z,28.96
2023-02-12T01:43:14.866Z,28.95
2023-02-12T01:43:44.984Z,28.89
2023-02-12T01:44:15.106Z,28.88
2023-02-12T01:44:45.108Z,28.89
2023-02-12T01:45:15.095Z,28.92
2023-02-12T01:45:45.214Z,28.92
2023-02-12T01:46:15.254Z,28.97
2023-02-12T01:46:45.333Z,28.89
2023-02-12T01:47:15.367Z,28.85
2023-02-12T01:47:45.387Z,28.89
2023-02-12T01:48:15.361Z,28.90
2023-02-12T01:48:45.483Z,28.88
2023-02-12T01:49:15.470Z,28.88
2023-02-12T01:49:45.588Z,28.86
2023-02-12T01:50:15.715Z,28.89
2023-02-12T01:50:45.730Z,28.88
2023-02-12T01:51:15.705Z,28.85
2023-02-12T01:51:45.822Z,28.88
2023-02-12T01:52:15.828Z,28.89
2023-02-12T01:52:45.939Z,28.91
2023-02-12T01:53:15.939Z,28.83
2023-02-12T01:53:45.938Z,28.82
2023-02-12T01:54:16.055Z,28.88
2023-02-12T01:54:46.050Z,28.86
2023-02-12T01:55:16.060Z,28.89
2023-02-12T01:55:46.168Z,28.91
2023-02-12T01:56:16.285Z,28.92
2023-02-12T01:56:46.293Z,28.91
2023-02-12T01:57:16.282Z,28.92
2023-02-12T01:57:46.287Z,28.85
2023-02-12T01:58:16.331Z,28.92
2023-02-12T01:58:46.406Z,28.86
2023-02-12T01:59:16.493Z,28.91
2023-02-12T01:59:46.587Z,28.89
2023-02-12T02:00:16.668Z,28.92
2023-02-12T02:00:46.741Z,28.88
2023-02-12T02:01:16.874Z,28.89
2023-02-12T02:01:46.895Z,28.89
2023-02-12T02:02:16.846Z,28.92
2023-02-12T02:02:46.937Z,28.88
2023-02-12T02:03:17.098Z,28.89
2023-02-12T02:03:47.033Z,28.89
2023-02-12T02:04:17.108Z,28.91
2023-02-12T02:04:47.188Z,28.91
2023-02-12T02:05:17.268Z,28.86
2023-02-12T02:05:47.352Z,28.86
2023-02-12T02:06:17.454Z,28.86
2023-02-12T02:06:47.513Z,28.89
2023-02-12T02:07:17.594Z,28.88
2023-02-12T02:07:47.704Z,28.89
2023-02-12T02:08:17.787Z,28.89
2023-02-12T02:08:47.781Z,28.85
2023-02-12T02:09:17.777Z,28.92
2023-02-12T02:09:47.910Z,28.91
2023-02-12T02:10:17.898Z,28.91
2023-02-12T02:10:47.895Z,28.89
2023-02-12T02:11:18.011Z,28.89
2023-02-12T02:11:48.016Z,28.88
2023-02-12T02:12:18.166Z,28.86
2023-02-12T02:12:48.133Z,28.89
2023-02-12T02:13:18.256Z,28.91
2023-02-12T02:13:48.373Z,28.88
2023-02-12T02:14:18.490Z,28.91
2023-02-12T02:14:48.493Z,28.92
2023-02-12T02:15:18.617Z,28.92
2023-02-12T02:15:48.823Z,28.89
2023-02-12T02:16:18.919Z,28.89
2023-02-12T02:16:48.930Z,28.91
2023-02-12T02:17:19.042Z,28.89
2023-02-12T02:17:49.162Z,28.89
2023-02-12T02:18:19.289Z,28.89
2023-02-12T02:18:49.284Z,28.89
2023-02-12T02:19:19.275Z,28.89
2023-02-12T02:19:49.271Z,28.86
2023-02-12T02:20:19.388Z,28.91
2023-02-12T02:20:49.391Z,28.86
2023-02-12T02:21:19.407Z,28.92
2023-02-12T02:21:49.502Z,28.92
2023-02-12T02:22:19.496Z,28.86
2023-02-12T02:22:49.492Z,28.86
2023-02-12T02:23:19.609Z,28.83
2023-02-12T02:23:49.602Z,28.89
2023-02-12T02:24:19.719Z,28.89
2023-02-12T02:24:49.839Z,28.89
2023-02-12T02:25:19.962Z,28.91
2023-02-12T02:25:50.086Z,28.89
2023-02-12T02:26:20.087Z,28.88
2023-02-12T02:26:50.082Z,28.91
2023-02-12T02:27:20.085Z,28.89
2023-02-12T02:27:50.076Z,28.91
2023-02-12T02:28:20.159Z,28.94
2023-02-12T02:28:50.135Z,28.89
2023-02-12T02:29:20.249Z,28.83
2023-02-12T02:29:50.377Z,28.89
2023-02-12T02:30:20.365Z,28.91
2023-02-12T02:30:50.448Z,28.89
2023-02-12T02:31:20.616Z,28.86
2023-02-12T02:31:50.698Z,28.89
2023-02-12T02:32:20.555Z,28.86
2023-02-12T02:32:50.678Z,28.91
2023-02-12T02:33:20.672Z,28.85
2023-02-12T02:33:50.785Z,28.88
2023-02-12T02:34:20.910Z,28.92
2023-02-12T02:34:50.908Z,28.91
2023-02-12T02:35:21.023Z,28.97
2023-02-12T02:35:51.021Z,28.88
2023-02-12T02:36:21.046Z,28.86
2023-02-12T02:37:00.453Z,28.94
2023-02-12T02:37:21.162Z,28.91
2023-02-12T02:37:51.166Z,28.88
2023-02-12T02:38:21.169Z,28.91
2023-02-12T02:38:51.165Z,28.94
2023-02-12T02:39:21.157Z,28.91
2023-02-12T02:39:51.158Z,28.92
2023-02-12T02:40:21.152Z,28.95
2023-02-12T02:40:51.274Z,28.94
2023-02-12T02:41:21.266Z,28.91
2023-02-12T02:41:51.266Z,28.89
2023-02-12T02:42:21.278Z,28.89
2023-02-12T02:42:51.273Z,28.92
2023-02-12T02:43:21.411Z,28.91
2023-02-12T02:43:51.420Z,28.95
2023-02-12T02:44:21.397Z,28.94
2023-02-12T02:44:51.518Z,28.88
2023-02-12T02:45:21.515Z,28.92
2023-02-12T02:45:51.636Z,28.89
2023-02-12T02:46:21.778Z,28.89
2023-02-12T02:46:51.830Z,28.89
2023-02-12T02:47:21.764Z,28.94
2023-02-12T02:47:51.881Z,28.92
2023-02-12T02:48:21.893Z,28.91
2023-02-12T02:48:51.886Z,28.94
2023-02-12T02:49:21.896Z,28.91
2023-02-12T02:49:51.891Z,28.90
2023-02-12T02:50:21.885Z,28.94
2023-02-12T02:50:52.005Z,28.97
2023-02-12T02:51:22.001Z,28.94
2023-02-12T02:51:52.033Z,28.95
2023-02-12T02:52:21.992Z,28.91
2023-02-12T02:52:51.998Z,28.89
2023-02-12T02:53:21.980Z,28.89
2023-02-12T02:53:51.977Z,28.94
2023-02-12T02:54:22.101Z,28.94
2023-02-12T02:54:52.094Z,28.91
2023-02-12T02:55:22.088Z,28.88
2023-02-12T02:55:52.317Z,28.92
2023-02-12T02:56:22.338Z,28.95
2023-02-12T02:56:52.324Z,28.98
2023-02-12T02:57:22.438Z,29.00
2023-02-12T02:57:52.557Z,28.92
2023-02-12T02:58:22.658Z,28.95
2023-02-12T02:58:52.741Z,28.96
2023-02-12T02:59:22.824Z,28.88
2023-02-12T02:59:52.898Z,28.91
2023-02-12T03:00:22.977Z,28.94
2023-02-12T03:00:53.136Z,28.92
2023-02-12T03:01:23.117Z,28.92
2023-02-12T03:01:53.083Z,28.94
2023-02-12T03:02:23.164Z,28.95
2023-02-12T03:02:53.301Z,28.90
2023-02-12T03:03:23.432Z,28.89
2023-02-12T03:03:53.354Z,28.92
2023-02-12T03:04:23.437Z,28.99
2023-02-12T03:04:53.520Z,28.98
2023-02-12T03:05:23.603Z,28.98
2023-02-12T03:05:54.010Z,28.94
2023-02-12T03:06:23.722Z,28.95
2023-02-12T03:06:53.801Z,28.96
2023-02-12T03:07:23.909Z,28.98
2023-02-12T03:07:53.963Z,28.94
2023-02-12T03:08:24.125Z,28.98
2023-02-12T03:08:54.128Z,28.96
2023-02-12T03:09:24.125Z,28.95
2023-02-12T03:09:54.248Z,28.89
2023-02-12T03:10:24.243Z,28.98
2023-02-12T03:10:54.246Z,28.96
2023-02-12T03:11:24.239Z,28.98
2023-02-12T03:11:54.236Z,28.95
2023-02-12T03:12:24.227Z,28.95
2023-02-12T03:12:54.222Z,28.92
2023-02-12T03:13:24.216Z,28.95
2023-02-12T03:13:54.342Z,28.98
2023-02-12T03:14:24.336Z,28.99
2023-02-12T03:14:54.334Z,28.95
2023-02-12T03:15:24.325Z,28.96
2023-02-12T03:15:54.662Z,28.94
2023-02-12T03:16:24.476Z,28.90
2023-02-12T03:16:54.465Z,29.01
2023-02-12T03:17:24.463Z,28.95
2023-02-12T03:17:54.579Z,28.94
2023-02-12T03:18:24.581Z,28.95
2023-02-12T03:18:54.581Z,28.95
2023-02-12T03:19:24.573Z,28.98
2023-02-12T03:19:54.578Z,28.92
2023-02-12T03:20:24.593Z,28.92
2023-02-12T03:20:54.689Z,28.96
2023-02-12T03:21:24.693Z,28.92
2023-02-12T03:21:54.806Z,28.94
2023-02-12T03:22:24.797Z,29.01
2023-02-12T03:22:54.824Z,28.95
2023-02-12T03:23:24.790Z,28.92
2023-02-12T03:23:54.915Z,28.95
2023-02-12T03:24:24.909Z,28.92
2023-02-12T03:24:55.036Z,28.96
2023-02-12T03:25:25.034Z,29.01
2023-02-12T03:25:55.412Z,28.96
2023-02-12T03:26:25.157Z,28.95
2023-02-12T03:26:55.155Z,28.96
2023-02-12T03:27:25.148Z,28.98
2023-02-12T03:27:55.266Z,28.92
2023-02-12T03:28:25.363Z,28.92
2023-02-12T03:28:55.338Z,28.96
2023-02-12T03:29:25.337Z,28.95
2023-02-12T03:29:55.329Z,28.95
2023-02-12T03:30:25.446Z,29.01
2023-02-12T03:30:55.611Z,28.92
2023-02-12T03:31:25.636Z,28.92
2023-02-12T03:31:55.728Z,28.95
2023-02-12T03:32:25.604Z,28.92
2023-02-12T03:32:55.597Z,28.96
2023-02-12T03:33:25.595Z,28.95
2023-02-12T03:33:55.617Z,28.96
2023-02-12T03:34:25.614Z,28.95
2023-02-12T03:34:55.641Z,28.90
2023-02-12T03:35:25.637Z,28.95
2023-02-12T03:35:56.092Z,28.90
2023-02-12T03:36:25.872Z,29.01
2023-02-12T03:36:55.872Z,29.04
2023-02-12T03:37:26.008Z,28.95
2023-02-12T03:37:55.988Z,29.01
2023-02-12T03:38:26.057Z,28.94
2023-02-12T03:38:56.188Z,28.98
2023-02-12T03:39:26.190Z,28.96
2023-02-12T03:39:56.188Z,28.95
2023-02-12T03:40:26.314Z,28.95
2023-02-12T03:40:56.314Z,28.98
2023-02-12T03:41:26.450Z,28.98
2023-02-12T03:41:56.405Z,28.99
2023-02-12T03:42:26.402Z,28.98
2023-02-12T03:42:56.396Z,28.98
2023-02-12T03:43:26.391Z,28.96
2023-02-12T03:43:56.389Z,28.92
2023-02-12T03:44:26.508Z,28.92
2023-02-12T03:44:56.507Z,28.98
2023-02-12T03:45:26.506Z,28.96
2023-02-12T03:45:57.062Z,28.95
2023-02-12T03:46:26.702Z,28.96
2023-02-12T03:46:56.697Z,28.92
2023-02-12T03:47:26.811Z,28.95
2023-02-12T03:47:56.815Z,28.95
2023-02-12T03:48:26.804Z,28.94
2023-02-12T03:48:56.921Z,28.99
2023-02-12T03:49:26.939Z,28.98
2023-02-12T03:49:56.950Z,28.98
2023-02-12T03:50:26.942Z,28.95
2023-02-12T03:50:56.936Z,28.95
2023-02-12T03:51:27.043Z,28.98
2023-02-12T03:51:57.040Z,29.06
2023-02-12T03:52:27.034Z,28.95
2023-02-12T03:52:57.148Z,28.93
2023-02-12T03:53:27.148Z,28.95
2023-02-12T03:53:57.199Z,28.95
2023-02-12T03:54:27.182Z,28.96
2023-02-12T03:54:57.180Z,28.98
2023-02-12T03:55:27.169Z,28.89
2023-02-12T03:55:57.501Z,28.99
2023-02-12T03:56:27.277Z,28.93
2023-02-12T03:56:57.395Z,29.01
2023-02-12T03:57:27.388Z,28.98
2023-02-12T03:57:57.508Z,28.95
2023-02-12T03:58:27.585Z,28.99
2023-02-12T03:58:57.668Z,28.94
2023-02-12T03:59:27.768Z,28.98
2023-02-12T03:59:57.849Z,28.94
2023-02-12T04:00:27.971Z,28.96
2023-02-12T04:00:58.110Z,28.95
2023-02-12T04:01:28.226Z,28.94
2023-02-12T04:01:58.135Z,28.95
2023-02-12T04:02:28.073Z,28.92
2023-02-12T04:02:58.161Z,28.92
2023-02-12T04:03:28.238Z,28.96
2023-02-12T04:03:58.439Z,28.98
2023-02-12T04:04:28.485Z,28.92
2023-02-12T04:04:58.459Z,28.96
2023-02-12T04:05:28.546Z,28.96
2023-02-12T04:05:58.648Z,28.96
2023-02-12T04:06:28.765Z,28.95
2023-02-12T04:06:58.847Z,28.94
2023-02-12T04:07:28.936Z,28.92
2023-02-12T04:07:59.008Z,28.94
2023-02-12T04:08:29.002Z,28.96
2023-02-12T04:08:59.164Z,28.94
2023-02-12T04:09:29.169Z,28.98
2023-02-12T04:09:59.176Z,28.99
2023-02-12T04:10:29.199Z,28.96
2023-02-12T04:10:59.195Z,28.90
2023-02-12T04:11:29.189Z,28.99
2023-02-12T04:11:59.313Z,28.94
2023-02-12T04:12:29.306Z,28.98
2023-02-12T04:12:59.421Z,28.96
2023-02-12T04:13:29.427Z,28.98
2023-02-12T04:13:59.417Z,28.99
2023-02-12T04:14:29.490Z,29.01
2023-02-12T04:14:59.482Z,29.02
2023-02-12T04:15:29.570Z,28.96
2023-02-12T04:15:59.572Z,29.01
2023-02-12T04:16:29.653Z,28.99
2023-02-12T04:16:59.852Z,28.94
2023-02-12T04:17:29.758Z,28.95
2023-02-12T04:17:59.784Z,28.95
2023-02-12T04:18:29.805Z,28.99
2023-02-12T04:18:59.948Z,28.96
2023-02-12T04:19:29.942Z,28.98
2023-02-12T04:19:59.948Z,28.98
2023-02-12T04:20:30.057Z,29.06
2023-02-12T04:21:00.100Z,28.96
2023-02-12T04:21:30.068Z,28.98
2023-02-12T04:22:00.098Z,28.98
2023-02-12T04:22:30.073Z,28.96
2023-02-12T04:23:00.207Z,28.95
2023-02-12T04:23:30.307Z,28.96
2023-02-12T04:24:00.310Z,28.99
2023-02-12T04:24:30.298Z,28.96
2023-02-12T04:25:00.462Z,28.98
2023-02-12T04:25:30.444Z,28.94
2023-02-12T04:26:00.456Z,28.96
2023-02-12T04:26:30.503Z,28.98
2023-02-12T04:27:00.465Z,29.01
2023-02-12T04:27:30.630Z,28.98
2023-02-12T04:28:00.700Z,28.96
2023-02-12T04:28:30.731Z,28.98
2023-02-12T04:29:00.704Z,28.96
2023-02-12T04:29:30.709Z,28.99
2023-02-12T04:30:00.705Z,29.04
2023-02-12T04:30:30.783Z,29.01
2023-02-12T04:31:00.956Z,28.95
2023-02-12T04:31:30.943Z,28.98
2023-02-12T04:32:00.871Z,28.94
2023-02-12T04:32:31.004Z,28.94
2023-02-12T04:33:00.993Z,28.94
2023-02-12T04:33:31.111Z,28.96
2023-02-12T04:34:01.139Z,29.01
2023-02-12T04:34:31.238Z,28.98
2023-02-12T04:35:01.263Z,28.99
2023-02-12T04:35:31.366Z,28.94
2023-02-12T04:36:01.362Z,28.96
2023-02-12T04:36:31.357Z,28.95
2023-02-12T04:37:01.365Z,28.99
2023-02-12T04:37:31.382Z,28.98
2023-02-12T04:38:01.360Z,28.99
2023-02-12T04:38:31.360Z,28.98
2023-02-12T04:39:01.480Z,28.98
2023-02-12T04:39:31.483Z,29.01
2023-02-12T04:40:01.469Z,29.01
2023-02-12T04:40:31.614Z,28.95
2023-02-12T04:41:01.602Z,28.94
2023-02-12T04:41:31.670Z,28.95
2023-02-12T04:42:01.633Z,28.98
2023-02-12T04:42:31.674Z,28.96
2023-02-12T04:43:01.773Z,28.98
2023-02-12T04:43:32.786Z,29.01
2023-02-12T04:44:01.849Z,28.98
2023-02-12T04:44:31.956Z,28.92
2023-02-12T04:45:01.948Z,28.98
2023-02-12T04:45:31.997Z,28.95
2023-02-12T04:46:02.042Z,28.98
2023-02-12T04:46:32.117Z,29.04
2023-02-12T04:47:02.161Z,28.96
2023-02-12T04:47:32.276Z,28.95
2023-02-12T04:48:02.414Z,28.98
2023-02-12T04:48:32.409Z,28.96
2023-02-12T04:49:02.526Z,29.01
2023-02-12T04:49:32.542Z,28.99
2023-02-12T04:50:02.546Z,28.96
2023-02-12T04:50:32.537Z,29.01
2023-02-12T04:51:02.581Z,28.96
2023-02-12T04:51:32.546Z,28.99
2023-02-12T04:52:02.663Z,28.94
2023-02-12T04:52:32.667Z,28.94
2023-02-12T04:53:02.677Z,28.96
2023-02-12T04:53:32.669Z,28.99
2023-02-12T04:54:02.661Z,29.02
2023-02-12T04:54:32.660Z,29.02
2023-02-12T04:55:02.779Z,29.02
2023-02-12T04:55:32.792Z,29.01
2023-02-12T04:56:02.810Z,28.99
2023-02-12T04:56:32.905Z,29.04
2023-02-12T04:57:02.908Z,29.04
2023-02-12T04:57:32.896Z,28.96
2023-02-12T04:58:03.004Z,29.04
2023-02-12T04:58:33.088Z,28.99
2023-02-12T04:59:03.166Z,29.02
2023-02-12T04:59:33.248Z,28.96
2023-02-12T05:00:03.328Z,29.02
2023-02-12T05:00:33.411Z,28.99
2023-02-12T05:01:03.513Z,28.98
2023-02-12T05:01:33.607Z,28.99
2023-02-12T05:02:03.663Z,29.02
2023-02-12T05:02:33.743Z,29.02
2023-02-12T05:03:03.822Z,28.99
2023-02-12T05:03:33.910Z,29.02
2023-02-12T05:04:03.986Z,29.02
2023-02-12T05:04:34.076Z,29.05
2023-02-12T05:05:04.216Z,29.01
2023-02-12T05:05:34.219Z,29.05
2023-02-12T05:06:04.314Z,29.07
2023-02-12T05:06:34.379Z,29.01
2023-02-12T05:07:04.476Z,29.01
2023-02-12T05:07:34.578Z,28.99
2023-02-12T05:08:04.650Z,29.02
2023-02-12T05:08:34.655Z,29.02
2023-02-12T05:09:04.651Z,29.02
2023-02-12T05:09:34.640Z,29.02
2023-02-12T05:10:04.630Z,28.95
2023-02-12T05:10:34.625Z,29.05
2023-02-12T05:11:04.776Z,29.01
2023-02-12T05:11:34.750Z,28.98
2023-02-12T05:12:04.740Z,29.02
2023-02-12T05:12:34.733Z,29.01
2023-02-12T05:13:04.852Z,28.99
2023-02-12T05:13:34.848Z,29.04
2023-02-12T05:14:04.848Z,28.96
2023-02-12T05:14:34.834Z,29.01
2023-02-12T05:15:04.835Z,28.99
2023-02-12T05:15:35.030Z,29.01
2023-02-12T05:16:05.110Z,29.02
2023-02-12T05:16:35.109Z,28.98
2023-02-12T05:17:05.226Z,28.97
2023-02-12T05:17:35.353Z,29.01
2023-02-12T05:18:05.346Z,28.98
2023-02-12T05:18:35.464Z,29.01
2023-02-12T05:19:05.611Z,29.02
2023-02-12T05:19:35.591Z,29.02
2023-02-12T05:20:05.598Z,29.01
2023-02-12T05:20:35.696Z,29.01
2023-02-12T05:21:05.711Z,28.99
2023-02-12T05:21:35.696Z,29.04
2023-02-12T05:22:05.811Z,28.97
2023-02-12T05:22:35.822Z,29.01
2023-02-12T05:23:05.811Z,28.98
2023-02-12T05:23:35.931Z,28.96
2023-02-12T05:24:06.059Z,29.05
2023-02-12T05:24:36.162Z,29.02
2023-02-12T05:25:06.170Z,29.05
2023-02-12T05:25:36.169Z,29.01
2023-02-12T05:26:06.284Z,29.02
2023-02-12T05:26:36.430Z,29.06
2023-02-12T05:27:06.407Z,28.99
2023-02-12T05:27:36.401Z,29.02
2023-02-12T05:28:06.442Z,28.99
2023-02-12T05:28:36.622Z,28.99
2023-02-12T05:29:06.627Z,29.02
2023-02-12T05:29:36.741Z,29.04
2023-02-12T05:30:06.721Z,29.07
2023-02-12T05:30:36.861Z,29.05
2023-02-12T05:31:06.898Z,29.05
2023-02-12T05:31:36.896Z,28.99
2023-02-12T05:32:07.071Z,29.02
2023-02-12T05:32:36.874Z,29.02
2023-02-12T05:33:06.982Z,29.01
2023-02-12T05:33:36.983Z,29.02
2023-02-12T05:34:07.102Z,29.04
2023-02-12T05:34:37.250Z,29.04
2023-02-12T05:35:07.222Z,29.04
2023-02-12T05:35:37.338Z,29.04
2023-02-12T05:36:07.457Z,29.04
2023-02-12T05:36:37.454Z,29.05
2023-02-12T05:37:07.578Z,29.04
2023-02-12T05:37:37.569Z,29.02
2023-02-12T05:38:07.686Z,29.10
2023-02-12T05:38:37.803Z,29.01
2023-02-12T05:39:07.800Z,29.04
2023-02-12T05:39:37.795Z,28.97
2023-02-12T05:40:07.914Z,29.04
2023-02-12T05:40:38.026Z,29.02
2023-02-12T05:41:08.022Z,29.02
2023-02-12T05:41:38.037Z,28.98
2023-02-12T05:42:08.044Z,29.04
2023-02-12T05:42:38.051Z,29.04
2023-02-12T05:43:08.029Z,29.02
2023-02-12T05:43:38.156Z,29.01
2023-02-12T05:44:08.177Z,29.04
2023-02-12T05:44:38.142Z,29.08
2023-02-12T05:45:08.253Z,29.10
2023-02-12T05:45:38.259Z,29.05
2023-02-12T05:46:08.407Z,29.02
2023-02-12T05:46:38.412Z,29.01
2023-02-12T05:47:08.435Z,29.01
2023-02-12T05:47:38.554Z,29.07
2023-02-12T05:48:08.671Z,29.02
2023-02-12T05:48:38.789Z,28.99
2023-02-12T05:49:08.817Z,29.02
2023-02-12T05:49:38.947Z,29.05
2023-02-12T05:50:08.930Z,29.02
2023-02-12T05:50:38.920Z,29.07
2023-02-12T05:51:08.915Z,29.03
2023-02-12T05:51:38.912Z,29.05
2023-02-12T05:52:08.917Z,29.07
2023-02-12T05:52:39.031Z,29.05
2023-02-12T05:53:09.026Z,28.97
2023-02-12T05:53:39.159Z,29.04
2023-02-12T05:54:09.140Z,28.97
2023-02-12T05:54:39.259Z,29.04
2023-02-12T05:55:09.269Z,29.04
2023-02-12T05:55:39.246Z,29.05
2023-02-12T05:56:09.369Z,29.04
2023-02-12T05:56:39.367Z,29.05
2023-02-12T05:57:09.358Z,29.04
2023-02-12T05:57:39.498Z,29.02
2023-02-12T05:58:09.468Z,28.96
2023-02-12T05:58:39.464Z,29.04
2023-02-12T05:59:09.598Z,29.04
2023-02-12T05:59:39.588Z,29.04
2023-02-12T06:00:09.574Z,29.04
2023-02-12T06:00:39.689Z,29.05
2023-02-12T06:01:09.689Z,29.04
2023-02-12T06:01:39.689Z,28.99
2023-02-12T06:02:09.675Z,28.97
2023-02-12T06:02:39.863Z,29.07
2023-02-12T06:03:09.876Z,29.05
2023-02-12T06:03:40.020Z,29.01
2023-02-12T06:04:10.115Z,28.98
2023-02-12T06:04:40.105Z,29.02
2023-02-12T06:05:10.100Z,29.01
2023-02-12T06:05:40.209Z,28.99
2023-02-12T06:06:10.209Z,29.01
2023-02-12T06:06:40.203Z,29.04
2023-02-12T06:07:10.192Z,29.02
2023-02-12T06:07:40.450Z,29.01
2023-02-12T06:08:10.326Z,29.07
2023-02-12T06:08:40.358Z,29.02
2023-02-12T06:09:10.383Z,29.02
2023-02-12T06:09:40.436Z,29.04
2023-02-12T06:10:10.473Z,29.08
2023-02-12T06:10:40.513Z,29.04
2023-02-12T06:11:10.542Z,29.01
2023-02-12T06:11:40.580Z,29.02
2023-02-12T06:12:10.633Z,29.01
2023-02-12T06:12:40.661Z,29.02
2023-02-12T06:13:10.716Z,28.96
2023-02-12T06:13:40.742Z,28.98
2023-02-12T06:14:10.757Z,28.99
2023-02-12T06:14:40.809Z,29.01
2023-02-12T06:15:10.827Z,29.01
2023-02-12T06:15:40.998Z,29.01
2023-02-12T06:16:10.931Z,29.04
2023-02-12T06:16:41.108Z,29.02
2023-02-12T06:17:11.039Z,29.06
2023-02-12T06:17:41.068Z,29.02
2023-02-12T06:18:11.099Z,29.01
2023-02-12T06:18:41.124Z,29.04
2023-02-12T06:19:11.155Z,29.04
2023-02-12T06:19:41.190Z,29.02
2023-02-12T06:20:11.221Z,29.01
2023-02-12T06:20:41.259Z,28.99
2023-02-12T06:21:11.286Z,29.02
2023-02-12T06:21:41.314Z,29.04
2023-02-12T06:22:11.365Z,29.08
2023-02-12T06:22:41.397Z,29.04
2023-02-12T06:23:11.428Z,29.07
2023-02-12T06:23:41.459Z,29.05
2023-02-12T06:24:11.489Z,29.02
2023-02-12T06:24:41.517Z,29.01
2023-02-12T06:25:11.556Z,29.01
2023-02-12T06:25:41.580Z,29.04
2023-02-12T06:26:11.607Z,29.01
2023-02-12T06:26:41.637Z,29.05